Huvudsida
METAR-TAF:

METAR-TAF

Flygplatser :

Djibouti, Djibouti

latitud: 11-33N, longitud: 043-10E, höjd: 49 m

Aktuellt väderrapport

Denna rapport gjordes för 32 minuter sedan, klockan 14:00 UTC
Vind 6 kt från ost
Temperatur 30°C
Fuktighet 66%
Tryck
Sikt 10 km eller mer
Spridda moln på en höjd av 2300 ft
Brutna moln på en höjd av 13000 ft

METAR: HDAM 161400Z 08006KT 9999 SCT023 BKN130 30/23 Q101

Tid: 17:32 (14:32 UTC)

Väderprognos

Denna rapport gjordes för 3 timmar och 32 minuter sedan, klockan 11:00 UTC
Prognos gäller från 16 kl. 12 UTC till 17 kl. 12 UTC
Vind 12 kt från ost
Sikt 10 km eller mer
Spridda moln på en höjd av 2300 ft
Blir
från 16 kl. 15 UTC till 16 kl. 18 UTC
Vind 5 kt varierande vindriktning
Få moln på en höjd av 2000 ft
Blir
från 17 kl. 00 UTC till 17 kl. 06 UTC
Vind kt från nord
Spridda moln på en höjd av 2000 ft

TAF: HDAM 161100Z 1612/1712 08012KT 9999 SCT023 BECMG 1615/1618 VRB05KT FEW020 BECMG 1700/1706 00000KT SCT020

Aktuella väderrapporter och prognoser från 4000 flygplatser (METAR- och TAF-rapporter).

De tillgängliga stationerna syns som gula och röda prickar på kartan.

För musen över prickarna för att se namnen på stationerna.

Klicka sedan för att få väderrapporter och prognoser.

För att ändra kartan: Klicka på de gröna knapparna med ett svart kors på för att zooma in; den gröna knappen med ett streck på för att zooma ut; eller på de gröna pilarna för angränsande kartor.


METAR-TAF: